Boulder City, Nevada Weather observations

Data are for observation ending at time listed.
 Day   Time    Ave.   Ave.  Ave.  Vector   Max.   Stn.    Total    Solar   Ave.  
  of    of     Air    Rel.  Wind   Wind    Wind   Baro.  Precip.   Rad.    Soil  
Year   Day     Temp.  Hum.  Speed  Dir.    Gust   Pres.                    Temp. 
2026   (PST)    F      %     mph   deg.    mph     mb.     in.     W/m2     F   
------------------------------------------------------------------------------
 245    4:10   74.5    12    5.6   208      9.3   914.9    0.00    3716    88.0
 245    4:20   74.1    12    5.9   220      8.3   914.8    0.00    3710    87.9
 245    4:30   74.2    12    5.6   214      8.9   914.8    0.00    3717    87.7
 245    4:40   73.6    12    4.7   192      7.9   914.8    0.00    3717    87.6
 245    4:50   72.7    12    2.4   191      5.6   914.9    0.00    3708    87.5
 245    5:00   71.7    13    2.0   220      2.6   915.1    0.00    3701    87.3
 245    5:10   70.8    13    2.7   216      3.9   915.0    0.00    3716    87.2
 245    5:20   70.2    14    3.3   228      4.7   915.0    0.00    3721    87.0
 245    5:30   70.6    13    3.6   210      5.8   915.1    0.00    3719    86.8
 245    5:40   72.4    12    4.3   230      6.1   915.3    0.00    3730    86.7
 245    5:50   73.6    12    3.3   195      6.0   915.6    0.00    3719    86.5
 245    6:00   74.3    12    3.3   158      6.1   915.9    0.00    3702    86.4
 245    6:10   74.7    12    3.5   199      6.1   916.0    0.00    3730    86.2
 245    6:20   75.1    12    3.2   241      5.5   916.1    0.00    3722    86.1
 245    6:30   75.7    12    3.0   244      5.2   916.2    0.00    3714    85.9
 245    6:40   76.6    11    5.0   230      9.3   916.3    0.00    3715    85.9
 245    6:50   77.5    11    5.7   198     10.7   916.4    0.00    3701    85.9
 245    7:00   77.9    10    8.2   179     12.2   916.5    0.00    3694    85.9
 245    7:10   78.6    10    6.3   173     10.1   896.2    0.00    3585    85.9
 245    7:20   79.4    10    6.7   177     10.8   882.6    0.00    3453    86.0
 245    7:30   80.2    10    8.0   179     11.8   925.0    0.00    3681    86.1
 245    7:40   80.7    10    7.3   174     11.8   917.1    0.00    3676    86.3
 245    7:50   81.2     9    7.9   185     11.5   888.4    0.00    3610    86.7
 245    8:00   81.7     9    8.6   177     13.9   919.9    0.00    3667    86.8
 245    8:10   82.2     9    7.8   166     12.1   917.4    0.00    3662    87.0
 245    8:20   82.9     9    9.2   170     15.3   917.4    0.00    3659    87.4
 245    8:30   83.9     8    8.1   191     13.8   917.5    0.00    3655    87.7
 245    8:40   84.6     8    7.4   214     14.5   917.7    0.00    3651    88.0
 245    8:50   85.0     8    7.3   196     12.4   917.8    0.00    3649    88.5
 245    9:00   85.2     8    7.1   198     14.2   917.9    0.00    3644    89.0
 245    9:10   85.9     7    7.7   185     12.1   918.0    0.00    3642    89.4
 245    9:20   87.0     7    7.6   176     13.4   917.9    0.00    3635    89.8
 245    9:30   87.7     7    6.7   175     14.8   918.0    0.00    3632    90.4
 245    9:40   87.8     7    9.1   184     19.4   918.0    0.00    3628    90.9
 245    9:50   87.9     6    7.3   179     14.5   917.9    0.00    3626    91.4
 245   10:00   87.9     7    6.5   181     12.6   917.8    0.00    3628    92.0
 245   10:10   88.7     6    8.2   176     16.0   917.7    0.00    3622    92.6
 245   10:20   89.3     6    9.1   184     14.0   917.7    0.00    3620    93.1
 245   10:30   89.5     6    7.6   184     17.0   917.6    0.00    3618    93.7
 245   10:40   89.3     6    5.9   145     14.1   917.6    0.00    3612    94.2
 245   10:50   89.7     6    6.8   199     12.1   917.6    0.00    3613    94.9
 245   11:00   89.8     6    7.4   175     13.3   917.7    0.00    3612    95.5
 245   11:10   90.8     6    6.3   118     13.4   917.4    0.00    3608    96.0
 245   11:20   91.2     6    6.2   153     12.5   917.4    0.00    3445    96.3
 245   11:30   92.7     6    8.2   174     17.5   917.2    0.00     911    97.0
 245   11:40   93.0     5    8.0   194     12.4   917.0    0.00     910    97.6
 245   11:50   93.1     5    8.6   178     14.7   916.9    0.00     905    98.2
 245   12:00   93.5     5   10.0   177     18.9   916.8    0.00     902    98.6
 245   12:10   93.8     5   10.3   170     20.0   916.6    0.00     896    99.1
 245   12:20   93.9     5    9.7   181     19.1   916.5    0.00     890    99.4
 245   12:30   94.2     5   10.5   171     19.4   916.4    0.00     881    99.8
 245   12:40   94.9     5    9.8   186     17.6   916.2    0.00     870    100.2
 245   12:50   95.3     5   11.5   191     20.0   916.2    0.00     857    100.5
 245   13:00   95.4     5    9.8   193     18.3   916.8    0.00     843    100.7
 245   13:10   96.3     5   12.1   197     21.1   915.9    0.00     826    101.0
 245   13:20   96.3     4    9.7   176     17.5   915.9    0.00     808    101.2
 245   13:30   96.4     4   12.1   207     18.9   915.8    0.00     790    101.6
 245   13:40   95.6     4   11.9   202     19.9   915.7    0.00     772    101.7
 245   13:50   95.9     4   13.5   200     24.5   915.6    0.00     753    101.9
 245   14:00   95.9     4   10.7   212     18.0   915.4    0.00     730    102.0
 245   14:10   95.9     4   13.1   201     23.5   915.4    0.00     708    102.1
 245   14:20   96.1     4   12.3   203     20.1   915.3    0.00     682    102.2
 245   14:30   96.3     4   11.5   199     19.6   915.3    0.00     655    102.2
 245   14:40   95.7     4   13.2   205     21.8   915.0    0.00     627    102.1
 245   14:50   95.8     4   12.9   206     22.9   915.0    0.00     597    102.2
 245   15:00   95.5     7   12.0   173     22.5   915.0    0.00     566    102.3
 245   15:10   95.8     4   10.7   186     19.0   914.9    0.00     536    102.2
 245   15:20   95.2     4   13.1   202     19.1   914.7    0.00     503    102.2
 245   15:30   95.9     4   11.8   192     18.2   914.7    0.00     470    101.9
 245   15:40   95.0     4   11.6   212     22.6   914.6    0.00     435    101.5
 245   15:50   95.2     4   11.3   196     21.6   914.5    0.00     401    101.4
 245   16:00   95.3     4   10.0   202     18.4   914.5    0.00     366    101.0
 245   16:10   95.2     4   11.4   204     20.1   914.4    0.00     332    100.8
 245   16:20   94.6     4   10.8   216     21.1   914.4    0.00     298    100.6
 245   16:30   94.3     4   10.4   218     19.2   914.4    0.00     263    100.3
 245   16:40   94.0     4   10.6   212     20.2   914.3    0.00     229    100.1
 245   16:50   93.3     4   13.9   218     24.5   914.3    0.00     196    100.0
 245   17:00   92.6     4   12.8   224     19.6   914.2    0.00     164    99.7
 245   17:10   92.3     5   10.8   223     19.4   914.1    0.00     135    99.4
 245   17:20   91.8     5   11.4   223     17.8   914.0    0.00     107    99.2
 245   17:30   91.1     5   11.1   220     19.8   914.0    0.00      81    98.9
 245   17:40   90.4     5   11.9   222     18.4   913.8    0.00      25    98.5
 245   17:50   89.9     5   11.6   225     20.0   913.7    0.00      13    98.3
 245   18:00   89.6     5   10.5   224     16.4   913.7    0.00       9    98.0
 245   18:10   89.2     6   10.5   224     17.5   913.6    0.00       4    97.8
 245   18:20   88.9     6    8.8   218     15.4   913.6    0.00       1    97.5
 245   18:30   88.5     6    6.3   214     12.4   913.6    0.00       0    97.3
 245   18:40   88.2     6    6.9   212     12.8   913.6    0.00       0    97.0
 245   18:50   87.6     6    6.2   212     12.1   913.7    0.00       0    96.7
 245   19:00   87.1     7    6.0   209     10.7   914.6    0.00       0    96.5
 245   19:10   86.5     7    6.0   185     10.5   913.8    0.00       0    96.3
 245   19:20   85.8     7    5.0   167      8.2   913.9    0.00       0    96.0
 245   19:30   84.8     8    3.3   139      6.7   914.0    0.00       0    95.8
 245   19:40   84.2     8    2.5   150      5.8   914.1    0.00       0    95.6
 245   19:50   82.5     8    1.3   263      3.1   914.1    0.00       0    95.4
 245   20:00   81.0     9    2.1   252      3.8   914.1    0.00       0    95.2
 245   20:10   81.2     9    2.6   256      5.6   914.2    0.00       0    95.0
 245   20:20   81.8     9    3.7   246      5.3   914.1    0.00       0    94.8
 245   20:30   81.4     9    3.9   237      6.7   914.1    0.00       0    94.5
 245   20:40   81.7     9    5.3   239      7.2   914.0    0.00       0    94.3
 245   20:50   82.3     9    5.8   232      9.5   913.9    0.00       0    94.0
 245   21:00   83.2     8    6.1   226      9.1   914.0    0.00       0    93.8
 245   21:10   83.1     8    5.4   217      7.9   914.0    0.00       0    93.5
 245   21:20   82.3     9    5.0   175      9.6   913.9    0.00       0    93.3
 245   21:30   81.2    10    7.7   183     12.1   913.9    0.00       0    93.1
 245   21:40   81.2     9    5.1   207      9.1   913.8    0.00       0    92.9
 245   21:50   81.3     9    7.1   232     11.5   913.8    0.00       0    92.6
 245   22:00   80.8     9    5.8   227      9.6   913.8    0.00       0    92.4
 245   22:10   80.2     9    4.2   214      7.9   914.0    0.00       0    92.2
 245   22:20   79.2    10    4.0   182      6.4   914.0    0.00       0    92.0
 245   22:30   78.5    10    4.6   239      8.1   913.9    0.00       0    91.8
 245   22:40   79.2    10    5.1   242      8.6   913.8    0.00       0    91.6
 245   22:50   79.9     9    6.1   240      9.8   913.8    0.00       0    91.4
 245   23:00   79.9    10    5.9   231      8.8   913.9    0.00       0    91.2
 245   23:10   79.5    10    5.3   221      8.2   913.9    0.00       0    91.0
 245   23:20   78.7    10    4.6   200      7.2   913.9    0.00       0    90.9
 245   23:30   77.8    11    4.5   186      7.5   914.0    0.00       0    90.7
 245   23:40   76.9    11    4.9   230      7.5   913.9    0.00       0    90.5
 245   23:50   76.8    11    5.5   238      8.6   913.8    0.00       0    90.3
 246    0:00   76.8    12    3.3   223      5.1   913.9    0.00       0    90.2
 246    0:10   76.4    12    0.7   269      2.6   913.8    0.00       0    90.0
 246    0:20   75.2    12    2.1   247      4.0   913.8    0.00       0    89.8
 246    0:30   75.2    13    3.1   252      5.8   913.8    0.00       0    89.7
 246    0:40   75.2    13    3.7   246      5.9   913.7    0.00       0    89.5
 246    0:50   74.8    13    4.4   243      6.8   913.8    0.00       0    89.4
 246    1:00   75.0    14    4.9   240      7.5   913.7    0.00       0    89.2
 246    1:10   74.9    14    3.9   214      6.6   913.7    0.00       0    89.0
 246    1:20   74.6    14    4.3   219      6.4   913.7    0.00       0    88.8
 246    1:30   74.8    14    3.8   215      6.4   913.7    0.00       0    88.6
 246    1:40   74.3    15    3.3   217      5.3   913.7    0.00       0    88.6
 246    1:50   74.1    15    3.7   214      6.1   913.7    0.00       0    88.4
 246    2:00   74.6    15    4.8   242      6.8   913.6    0.00       0    88.2
 246    2:10   74.7    15    3.7   256      7.5   913.6    0.00       0    88.0
 246    2:20   75.5    16    5.1   230      8.1   913.6    0.00       0    87.9
 246    2:30   75.7    16    4.8   226      6.6   913.7    0.00       0    87.7
 246    2:40   75.2    16    4.6   230      6.4   913.7    0.00       0    87.5
 246    2:50   74.5    17    4.3   237      6.6   913.6    0.00       0    87.4
 246    3:00   74.0    17    2.9   227      5.8   913.6    0.00       0    87.3
 246    3:10   73.2    18    3.0   234      5.2   913.6    0.00       0    87.2
 246    3:20   74.0    18    3.4   240      5.0   913.6    0.00       0    87.0
 246    3:30   73.6    18    3.5   234      4.7   913.6    0.00       0    86.9
 246    3:40   73.5    18    4.1   234      6.2   913.6    0.00       0    86.8
 246    3:50   73.7    18    4.5   248      6.2   913.5    0.00       0    86.6
 246    4:00   74.2    18    4.8   241      7.2   913.4    0.00       0    86.5

Return to Boulder City, Nevada graphs page.


Western Regional Climate Center,wrcc@dri.edu